sensor_id;sensor_type;location;lat;lon;timestamp;pressure;altitude;pressure_sealevel;temperature;humidity
37848;BME280;23688;33.130;-117.188;2023-02-12T00:01:11;99228.84;;;13.36;71.18
37848;BME280;23688;33.130;-117.188;2023-02-12T00:03:37;99241.00;;;13.03;75.00
37848;BME280;23688;33.130;-117.188;2023-02-12T00:06:05;99224.97;;;12.90;75.45
37848;BME280;23688;33.130;-117.188;2023-02-12T00:08:32;99241.22;;;13.11;76.04
37848;BME280;23688;33.130;-117.188;2023-02-12T00:10:58;99225.06;;;13.24;77.17
37848;BME280;23688;33.130;-117.188;2023-02-12T00:13:25;99226.25;;;13.36;75.99
37848;BME280;23688;33.130;-117.188;2023-02-12T00:15:51;99219.09;;;13.28;75.46
37848;BME280;23688;33.130;-117.188;2023-02-12T00:18:17;99222.72;;;13.34;75.54
37848;BME280;23688;33.130;-117.188;2023-02-12T00:20:44;99227.50;;;13.18;77.37
37848;BME280;23688;33.130;-117.188;2023-02-12T00:23:10;99213.19;;;13.02;78.24
37848;BME280;23688;33.130;-117.188;2023-02-12T00:25:40;99231.50;;;13.05;79.43
37848;BME280;23688;33.130;-117.188;2023-02-12T00:28:06;99220.28;;;12.76;81.59
37848;BME280;23688;33.130;-117.188;2023-02-12T00:30:34;99234.06;;;12.72;83.68
37848;BME280;23688;33.130;-117.188;2023-02-12T00:33:00;99244.25;;;12.34;83.03
37848;BME280;23688;33.130;-117.188;2023-02-12T00:35:27;99243.22;;;12.01;83.25
37848;BME280;23688;33.130;-117.188;2023-02-12T00:37:53;99241.84;;;11.86;83.43
37848;BME280;23688;33.130;-117.188;2023-02-12T00:40:19;99247.25;;;11.92;82.09
37848;BME280;23688;33.130;-117.188;2023-02-12T00:42:45;99241.03;;;11.87;82.37
37848;BME280;23688;33.130;-117.188;2023-02-12T00:45:12;99243.06;;;11.96;81.44
37848;BME280;23688;33.130;-117.188;2023-02-12T00:47:38;99226.09;;;11.82;80.50
37848;BME280;23688;33.130;-117.188;2023-02-12T00:50:05;99250.63;;;11.88;79.87
37848;BME280;23688;33.130;-117.188;2023-02-12T00:52:31;99231.16;;;11.77;80.08
37848;BME280;23688;33.130;-117.188;2023-02-12T00:54:58;99253.41;;;11.94;79.41
37848;BME280;23688;33.130;-117.188;2023-02-12T00:57:24;99261.53;;;11.78;79.30
37848;BME280;23688;33.130;-117.188;2023-02-12T00:59:51;99266.34;;;11.66;79.92
37848;BME280;23688;33.130;-117.188;2023-02-12T01:02:17;99251.78;;;11.45;79.64
37848;BME280;23688;33.130;-117.188;2023-02-12T01:04:44;99260.31;;;11.41;79.99
37848;BME280;23688;33.130;-117.188;2023-02-12T01:07:10;99253.75;;;11.27;80.91
37848;BME280;23688;33.130;-117.188;2023-02-12T01:09:39;99262.47;;;11.29;81.47
37848;BME280;23688;33.130;-117.188;2023-02-12T01:12:06;99265.28;;;11.35;81.44
37848;BME280;23688;33.130;-117.188;2023-02-12T01:14:33;99277.19;;;11.28;80.83
37848;BME280;23688;33.130;-117.188;2023-02-12T01:16:59;99268.09;;;11.16;79.88
37848;BME280;23688;33.130;-117.188;2023-02-12T01:19:25;99251.22;;;11.04;79.83
37848;BME280;23688;33.130;-117.188;2023-02-12T01:21:52;99278.75;;;11.23;80.19
37848;BME280;23688;33.130;-117.188;2023-02-12T01:24:18;99280.53;;;11.24;80.13
37848;BME280;23688;33.130;-117.188;2023-02-12T01:26:45;99281.66;;;11.32;80.26
37848;BME280;23688;33.130;-117.188;2023-02-12T01:29:11;99286.59;;;11.50;79.96
37848;BME280;23688;33.130;-117.188;2023-02-12T01:31:38;99277.56;;;11.39;79.82
37848;BME280;23688;33.130;-117.188;2023-02-12T01:34:06;99266.75;;;11.27;80.07
37848;BME280;23688;33.130;-117.188;2023-02-12T01:36:33;99294.59;;;11.31;81.17
37848;BME280;23688;33.130;-117.188;2023-02-12T01:39:03;99287.47;;;11.25;80.74
37848;BME280;23688;33.130;-117.188;2023-02-12T01:41:35;99271.81;;;11.24;80.95
37848;BME280;23688;33.130;-117.188;2023-02-12T01:44:09;99285.66;;;11.48;79.61
37848;BME280;23688;33.130;-117.188;2023-02-12T01:46:35;99293.22;;;11.66;79.26
37848;BME280;23688;33.130;-117.188;2023-02-12T01:49:06;99286.81;;;11.56;78.96
37848;BME280;23688;33.130;-117.188;2023-02-12T01:51:35;99267.22;;;11.66;78.22
37848;BME280;23688;33.130;-117.188;2023-02-12T01:54:04;99294.72;;;11.85;77.29
37848;BME280;23688;33.130;-117.188;2023-02-12T01:56:32;99288.00;;;11.92;76.78
37848;BME280;23688;33.130;-117.188;2023-02-12T01:58:59;99283.97;;;12.00;76.32
37848;BME280;23688;33.130;-117.188;2023-02-12T02:01:28;99296.22;;;12.04;75.97
37848;BME280;23688;33.130;-117.188;2023-02-12T02:04:08;99279.66;;;12.02;76.34
37848;BME280;23688;33.130;-117.188;2023-02-12T02:06:45;99283.19;;;12.03;75.85
37848;BME280;23688;33.130;-117.188;2023-02-12T02:09:15;99281.38;;;12.02;75.75
37848;BME280;23688;33.130;-117.188;2023-02-12T02:11:42;99298.81;;;12.04;75.83
37848;BME280;23688;33.130;-117.188;2023-02-12T02:14:27;99296.06;;;11.99;75.87
37848;BME280;23688;33.130;-117.188;2023-02-12T02:22:16;99299.88;;;11.84;76.91
37848;BME280;23688;33.130;-117.188;2023-02-12T02:33:57;99293.59;;;11.51;77.42
37848;BME280;23688;33.130;-117.188;2023-02-12T02:42:00;99313.78;;;11.34;78.37
37848;BME280;23688;33.130;-117.188;2023-02-12T02:44:50;99316.22;;;11.30;79.33
37848;BME280;23688;33.130;-117.188;2023-02-12T02:47:20;99312.50;;;11.22;79.63
37848;BME280;23688;33.130;-117.188;2023-02-12T02:49:58;99319.28;;;11.18;79.73
37848;BME280;23688;33.130;-117.188;2023-02-12T02:52:35;99325.25;;;11.16;79.95
37848;BME280;23688;33.130;-117.188;2023-02-12T02:55:07;99295.84;;;10.92;80.23
37848;BME280;23688;33.130;-117.188;2023-02-12T02:57:54;99324.88;;;11.05;79.97
37848;BME280;23688;33.130;-117.188;2023-02-12T03:00:35;99317.72;;;10.99;80.27
37848;BME280;23688;33.130;-117.188;2023-02-12T03:03:22;99328.06;;;10.98;80.63
37848;BME280;23688;33.130;-117.188;2023-02-12T03:05:51;99308.41;;;10.82;80.92
37848;BME280;23688;33.130;-117.188;2023-02-12T03:08:25;99329.19;;;10.82;81.46
37848;BME280;23688;33.130;-117.188;2023-02-12T03:10:58;99322.94;;;10.77;81.24
37848;BME280;23688;33.130;-117.188;2023-02-12T03:13:33;99331.25;;;10.68;81.94
37848;BME280;23688;33.130;-117.188;2023-02-12T03:16:13;99337.09;;;10.62;82.56
37848;BME280;23688;33.130;-117.188;2023-02-12T03:18:47;99337.81;;;10.58;83.46
37848;BME280;23688;33.130;-117.188;2023-02-12T03:21:19;99341.81;;;10.50;83.33
37848;BME280;23688;33.130;-117.188;2023-02-12T03:24:01;99349.72;;;10.53;84.00
37848;BME280;23688;33.130;-117.188;2023-02-12T03:26:44;99349.69;;;10.52;84.13
37848;BME280;23688;33.130;-117.188;2023-02-12T03:29:11;99350.78;;;10.58;84.23
37848;BME280;23688;33.130;-117.188;2023-02-12T03:37:49;99341.94;;;10.53;84.45
37848;BME280;23688;33.130;-117.188;2023-02-12T03:43:19;99362.84;;;10.56;84.53
37848;BME280;23688;33.130;-117.188;2023-02-12T03:48:27;99370.44;;;10.52;85.12
37848;BME280;23688;33.130;-117.188;2023-02-12T03:51:04;99368.56;;;10.47;84.60
37848;BME280;23688;33.130;-117.188;2023-02-12T03:53:34;99373.75;;;10.47;84.53
37848;BME280;23688;33.130;-117.188;2023-02-12T03:56:09;99353.53;;;10.39;85.03
37848;BME280;23688;33.130;-117.188;2023-02-12T03:58:38;99360.69;;;10.46;85.14
37848;BME280;23688;33.130;-117.188;2023-02-12T04:01:07;99372.22;;;10.53;85.06
37848;BME280;23688;33.130;-117.188;2023-02-12T04:03:33;99369.72;;;10.56;85.45
37848;BME280;23688;33.130;-117.188;2023-02-12T04:06:00;99354.00;;;10.51;85.49
37848;BME280;23688;33.130;-117.188;2023-02-12T04:08:27;99372.66;;;10.63;85.80
37848;BME280;23688;33.130;-117.188;2023-02-12T04:27:51;99364.03;;;10.64;85.08
37848;BME280;23688;33.130;-117.188;2023-02-12T04:33:02;99360.53;;;10.64;85.76
37848;BME280;23688;33.130;-117.188;2023-02-12T04:38:22;99371.13;;;10.68;85.41
37848;BME280;23688;33.130;-117.188;2023-02-12T04:40:50;99367.28;;;10.59;85.54
37848;BME280;23688;33.130;-117.188;2023-02-12T04:43:32;99382.84;;;10.59;85.84
37848;BME280;23688;33.130;-117.188;2023-02-12T04:46:06;99374.41;;;10.42;85.64
37848;BME280;23688;33.130;-117.188;2023-02-12T04:48:34;99387.28;;;10.40;86.25
37848;BME280;23688;33.130;-117.188;2023-02-12T04:51:02;99387.00;;;10.33;86.57
37848;BME280;23688;33.130;-117.188;2023-02-12T04:53:28;99382.50;;;10.28;86.84
37848;BME280;23688;33.130;-117.188;2023-02-12T04:55:54;99400.09;;;10.36;87.34
37848;BME280;23688;33.130;-117.188;2023-02-12T04:58:21;99400.91;;;10.35;87.33
37848;BME280;23688;33.130;-117.188;2023-02-12T05:00:47;99402.75;;;10.37;87.66
37848;BME280;23688;33.130;-117.188;2023-02-12T05:03:13;99398.56;;;10.41;88.17
37848;BME280;23688;33.130;-117.188;2023-02-12T05:05:40;99386.31;;;10.37;87.81
37848;BME280;23688;33.130;-117.188;2023-02-12T05:08:06;99390.72;;;10.39;87.75
37848;BME280;23688;33.130;-117.188;2023-02-12T05:10:32;99395.53;;;10.51;88.15
37848;BME280;23688;33.130;-117.188;2023-02-12T05:12:58;99395.66;;;10.54;87.65
37848;BME280;23688;33.130;-117.188;2023-02-12T05:15:25;99393.94;;;10.55;87.49
37848;BME280;23688;33.130;-117.188;2023-02-12T05:17:53;99401.03;;;10.59;87.46
37848;BME280;23688;33.130;-117.188;2023-02-12T05:20:19;99394.63;;;10.50;87.29
37848;BME280;23688;33.130;-117.188;2023-02-12T05:22:49;99395.47;;;10.49;87.85
37848;BME280;23688;33.130;-117.188;2023-02-12T05:25:16;99374.19;;;10.37;87.27
37848;BME280;23688;33.130;-117.188;2023-02-12T05:27:42;99388.06;;;10.38;88.02
37848;BME280;23688;33.130;-117.188;2023-02-12T05:30:08;99394.13;;;10.38;87.60
37848;BME280;23688;33.130;-117.188;2023-02-12T05:32:35;99388.63;;;10.31;88.03
37848;BME280;23688;33.130;-117.188;2023-02-12T05:35:01;99382.50;;;10.28;88.24
37848;BME280;23688;33.130;-117.188;2023-02-12T05:37:28;99388.47;;;10.27;88.18
37848;BME280;23688;33.130;-117.188;2023-02-12T05:39:56;99390.28;;;10.28;88.62
37848;BME280;23688;33.130;-117.188;2023-02-12T05:42:22;99378.09;;;10.27;87.83
37848;BME280;23688;33.130;-117.188;2023-02-12T05:44:48;99387.94;;;10.35;87.07
37848;BME280;23688;33.130;-117.188;2023-02-12T05:47:15;99378.00;;;10.24;87.40
37848;BME280;23688;33.130;-117.188;2023-02-12T05:49:41;99380.13;;;10.14;87.73
37848;BME280;23688;33.130;-117.188;2023-02-12T05:52:08;99377.22;;;10.06;88.14
37848;BME280;23688;33.130;-117.188;2023-02-12T05:54:34;99362.88;;;9.93;88.32
37848;BME280;23688;33.130;-117.188;2023-02-12T05:57:00;99378.44;;;9.93;88.52
37848;BME280;23688;33.130;-117.188;2023-02-12T05:59:27;99380.94;;;9.92;88.88
37848;BME280;23688;33.130;-117.188;2023-02-12T06:01:53;99376.19;;;9.81;89.04
37848;BME280;23688;33.130;-117.188;2023-02-12T06:04:22;99389.56;;;9.91;89.44
37848;BME280;23688;33.130;-117.188;2023-02-12T06:06:49;99386.00;;;9.89;89.00
37848;BME280;23688;33.130;-117.188;2023-02-12T06:09:15;99371.69;;;9.77;88.74
37848;BME280;23688;33.130;-117.188;2023-02-12T06:11:43;99373.53;;;9.80;88.71
37848;BME280;23688;33.130;-117.188;2023-02-12T06:14:13;99381.25;;;9.78;88.71
37848;BME280;23688;33.130;-117.188;2023-02-12T06:16:39;99380.19;;;9.73;89.31
37848;BME280;23688;33.130;-117.188;2023-02-12T06:19:06;99365.03;;;9.63;89.48
37848;BME280;23688;33.130;-117.188;2023-02-12T06:21:33;99377.31;;;9.67;89.61
37848;BME280;23688;33.130;-117.188;2023-02-12T06:23:59;99382.31;;;9.62;89.57
37848;BME280;23688;33.130;-117.188;2023-02-12T06:26:26;99383.06;;;9.60;89.52
37848;BME280;23688;33.130;-117.188;2023-02-12T06:28:53;99367.25;;;9.54;89.78
37848;BME280;23688;33.130;-117.188;2023-02-12T06:31:22;99379.66;;;9.61;89.91
37848;BME280;23688;33.130;-117.188;2023-02-12T06:33:50;99375.91;;;9.54;89.47
37848;BME280;23688;33.130;-117.188;2023-02-12T06:36:17;99382.53;;;9.48;89.17
37848;BME280;23688;33.130;-117.188;2023-02-12T06:38:44;99377.97;;;9.42;89.36
37848;BME280;23688;33.130;-117.188;2023-02-12T06:41:11;99371.63;;;9.35;90.14
37848;BME280;23688;33.130;-117.188;2023-02-12T06:43:37;99351.94;;;9.19;90.34
37848;BME280;23688;33.130;-117.188;2023-02-12T06:46:04;99362.31;;;9.19;90.31
37848;BME280;23688;33.130;-117.188;2023-02-12T06:48:31;99366.38;;;9.14;90.71
37848;BME280;23688;33.130;-117.188;2023-02-12T06:51:15;99358.41;;;9.10;90.68
37848;BME280;23688;33.130;-117.188;2023-02-12T06:53:43;99360.94;;;9.08;90.81
37848;BME280;23688;33.130;-117.188;2023-02-12T06:56:11;99350.22;;;9.00;91.06
37848;BME280;23688;33.130;-117.188;2023-02-12T06:58:40;99347.63;;;9.00;91.68
37848;BME280;23688;33.130;-117.188;2023-02-12T07:01:14;99352.94;;;9.04;92.37
37848;BME280;23688;33.130;-117.188;2023-02-12T07:03:53;99334.47;;;8.96;92.48
37848;BME280;23688;33.130;-117.188;2023-02-12T07:06:21;99351.84;;;8.98;92.41
37848;BME280;23688;33.130;-117.188;2023-02-12T07:08:51;99348.09;;;8.92;92.90
37848;BME280;23688;33.130;-117.188;2023-02-12T07:11:17;99346.88;;;8.84;93.12
37848;BME280;23688;33.130;-117.188;2023-02-12T07:13:47;99360.81;;;8.87;93.61
37848;BME280;23688;33.130;-117.188;2023-02-12T07:16:15;99354.72;;;8.85;93.60
37848;BME280;23688;33.130;-117.188;2023-02-12T07:18:43;99328.31;;;8.74;93.98
37848;BME280;23688;33.130;-117.188;2023-02-12T07:21:10;99357.56;;;8.91;93.78
37848;BME280;23688;33.130;-117.188;2023-02-12T07:23:37;99347.88;;;8.87;93.04
37848;BME280;23688;33.130;-117.188;2023-02-12T07:26:06;99351.38;;;8.88;93.20
37848;BME280;23688;33.130;-117.188;2023-02-12T07:28:33;99353.06;;;8.87;92.66
37848;BME280;23688;33.130;-117.188;2023-02-12T07:31:09;99352.78;;;8.81;93.07
37848;BME280;23688;33.130;-117.188;2023-02-12T07:33:36;99352.78;;;8.81;93.06
37848;BME280;23688;33.130;-117.188;2023-02-12T07:36:05;99340.59;;;8.78;93.03
37848;BME280;23688;33.130;-117.188;2023-02-12T07:38:31;99344.94;;;8.79;93.02
37848;BME280;23688;33.130;-117.188;2023-02-12T07:43:44;99344.72;;;8.75;92.77
37848;BME280;23688;33.130;-117.188;2023-02-12T07:46:16;99340.09;;;8.68;92.85
37848;BME280;23688;33.130;-117.188;2023-02-12T07:48:44;99334.56;;;8.60;92.99
37848;BME280;23688;33.130;-117.188;2023-02-12T07:51:13;99346.97;;;8.67;93.60
37848;BME280;23688;33.130;-117.188;2023-02-12T07:53:40;99340.09;;;8.68;93.69
37848;BME280;23688;33.130;-117.188;2023-02-12T07:56:24;99343.59;;;8.68;93.48
37848;BME280;23688;33.130;-117.188;2023-02-12T07:58:54;99340.91;;;8.67;92.92
37848;BME280;23688;33.130;-117.188;2023-02-12T08:01:30;99335.75;;;8.67;92.63
37848;BME280;23688;33.130;-117.188;2023-02-12T08:03:59;99312.03;;;8.57;92.39
37848;BME280;23688;33.130;-117.188;2023-02-12T08:06:28;99319.72;;;8.56;92.03
37848;BME280;23688;33.130;-117.188;2023-02-12T08:08:57;99319.56;;;8.53;92.65
37848;BME280;23688;33.130;-117.188;2023-02-12T08:11:24;99323.25;;;8.58;92.59
37848;BME280;23688;33.130;-117.188;2023-02-12T08:13:51;99323.72;;;8.49;92.32
37848;BME280;23688;33.130;-117.188;2023-02-12T08:16:21;99325.56;;;8.52;92.00
37848;BME280;23688;33.130;-117.188;2023-02-12T08:18:48;99322.91;;;8.50;91.81
37848;BME280;23688;33.130;-117.188;2023-02-12T08:21:17;99320.31;;;8.50;91.47
37848;BME280;23688;33.130;-117.188;2023-02-12T08:23:44;99317.66;;;8.49;91.50
37848;BME280;23688;33.130;-117.188;2023-02-12T08:28:53;99323.50;;;8.45;92.28
37848;BME280;23688;33.130;-117.188;2023-02-12T08:31:25;99305.91;;;8.38;92.35
37848;BME280;23688;33.130;-117.188;2023-02-12T08:33:52;99322.91;;;8.32;92.05
37848;BME280;23688;33.130;-117.188;2023-02-12T08:36:29;99321.72;;;8.26;92.16
37848;BME280;23688;33.130;-117.188;2023-02-12T08:38:59;99314.47;;;8.19;92.15
37848;BME280;23688;33.130;-117.188;2023-02-12T08:41:28;99310.78;;;8.13;92.81
37848;BME280;23688;33.130;-117.188;2023-02-12T08:43:59;99303.53;;;8.06;93.33
37848;BME280;23688;33.130;-117.188;2023-02-12T08:46:33;99311.16;;;8.03;93.18
37848;BME280;23688;33.130;-117.188;2023-02-12T08:49:09;99317.06;;;8.01;93.47
37848;BME280;23688;33.130;-117.188;2023-02-12T08:51:39;99313.59;;;8.00;93.92
37848;BME280;23688;33.130;-117.188;2023-02-12T08:54:09;99321.72;;;8.08;94.93
37848;BME280;23688;33.130;-117.188;2023-02-12T08:56:36;99312.00;;;8.02;95.30
37848;BME280;23688;33.130;-117.188;2023-02-12T08:59:04;99318.91;;;8.03;95.26
37848;BME280;23688;33.130;-117.188;2023-02-12T09:01:32;99320.63;;;8.03;95.17
37848;BME280;23688;33.130;-117.188;2023-02-12T09:04:00;99313.53;;;7.99;95.90
37848;BME280;23688;33.130;-117.188;2023-02-12T09:06:26;99325.84;;;8.04;96.00
37848;BME280;23688;33.130;-117.188;2023-02-12T09:08:54;99314.63;;;8.04;96.87
37848;BME280;23688;33.130;-117.188;2023-02-12T09:11:23;99319.56;;;7.99;96.75
37848;BME280;23688;33.130;-117.188;2023-02-12T09:14:14;99320.53;;;8.01;97.60
37848;BME280;23688;33.130;-117.188;2023-02-12T09:16:41;99300.38;;;7.94;98.15
37848;BME280;23688;33.130;-117.188;2023-02-12T09:19:10;99316.09;;;7.99;98.27
37848;BME280;23688;33.130;-117.188;2023-02-12T09:21:37;99313.66;;;8.02;98.57
37848;BME280;23688;33.130;-117.188;2023-02-12T09:24:03;99312.63;;;7.98;99.03
37848;BME280;23688;33.130;-117.188;2023-02-12T09:26:30;99321.41;;;8.02;99.03
37848;BME280;23688;33.130;-117.188;2023-02-12T09:28:56;99312.78;;;8.01;98.87
37848;BME280;23688;33.130;-117.188;2023-02-12T09:31:25;99294.22;;;7.92;98.52
37848;BME280;23688;33.130;-117.188;2023-02-12T09:33:53;99314.56;;;8.02;98.96
37848;BME280;23688;33.130;-117.188;2023-02-12T09:36:20;99317.16;;;8.02;98.44
37848;BME280;23688;33.130;-117.188;2023-02-12T09:38:47;99312.63;;;7.98;99.04
37848;BME280;23688;33.130;-117.188;2023-02-12T09:52:24;99298.97;;;8.01;98.15
37848;BME280;23688;33.130;-117.188;2023-02-12T09:54:52;99299.13;;;8.04;97.83
37848;BME280;23688;33.130;-117.188;2023-02-12T09:57:35;99291.31;;;8.02;97.88
37848;BME280;23688;33.130;-117.188;2023-02-12T10:00:04;99300.31;;;8.10;97.48
37848;BME280;23688;33.130;-117.188;2023-02-12T10:02:35;99288.84;;;8.05;97.44
37848;BME280;23688;33.130;-117.188;2023-02-12T10:05:03;99290.75;;;8.09;97.77
37848;BME280;23688;33.130;-117.188;2023-02-12T10:12:59;99304.66;;;8.11;97.17
37848;BME280;23688;33.130;-117.188;2023-02-12T10:15:37;99304.66;;;8.11;96.92
37848;BME280;23688;33.130;-117.188;2023-02-12T10:23:48;99293.34;;;8.09;97.57
37848;BME280;23688;33.130;-117.188;2023-02-12T10:26:21;99283.97;;;8.11;97.96
37848;BME280;23688;33.130;-117.188;2023-02-12T10:28:51;99253.84;;;7.94;98.30
37848;BME280;23688;33.130;-117.188;2023-02-12T10:31:27;99273.03;;;8.17;98.68
37848;BME280;23688;33.130;-117.188;2023-02-12T10:33:55;99274.06;;;8.21;98.65
37848;BME280;23688;33.130;-117.188;2023-02-12T10:36:41;99281.22;;;8.26;98.91
37848;BME280;23688;33.130;-117.188;2023-02-12T10:44:25;99259.94;;;8.32;97.35
37848;BME280;23688;33.130;-117.188;2023-02-12T10:46:52;99266.88;;;8.33;97.31
37848;BME280;23688;33.130;-117.188;2023-02-12T10:49:19;99266.00;;;8.32;97.36
37848;BME280;23688;33.130;-117.188;2023-02-12T10:54:38;99261.09;;;8.39;97.17
37848;BME280;23688;33.130;-117.188;2023-02-12T10:57:16;99255.16;;;8.40;96.42
37848;BME280;23688;33.130;-117.188;2023-02-12T10:59:45;99261.19;;;8.40;96.04
37848;BME280;23688;33.130;-117.188;2023-02-12T11:02:32;99249.72;;;8.35;95.83
37848;BME280;23688;33.130;-117.188;2023-02-12T11:05:00;99255.03;;;8.38;95.75
37848;BME280;23688;33.130;-117.188;2023-02-12T11:07:49;99249.81;;;8.36;96.31
37848;BME280;23688;33.130;-117.188;2023-02-12T11:10:20;99251.44;;;8.34;96.63
37848;BME280;23688;33.130;-117.188;2023-02-12T11:12:50;99235.63;;;8.28;96.38
37848;BME280;23688;33.130;-117.188;2023-02-12T11:15:25;99243.59;;;8.33;96.90
37848;BME280;23688;33.130;-117.188;2023-02-12T11:18:00;99238.41;;;8.33;97.33
37848;BME280;23688;33.130;-117.188;2023-02-12T11:20:36;99244.94;;;8.43;97.74
37848;BME280;23688;33.130;-117.188;2023-02-12T11:23:05;99240.81;;;8.46;98.04
37848;BME280;23688;33.130;-117.188;2023-02-12T11:25:35;99240.97;;;8.51;98.01
37848;BME280;23688;33.130;-117.188;2023-02-12T11:28:14;99238.78;;;8.59;98.17
37848;BME280;23688;33.130;-117.188;2023-02-12T11:33:33;99239.31;;;8.71;97.42
37848;BME280;23688;33.130;-117.188;2023-02-12T11:36:17;99229.88;;;8.73;96.99
37848;BME280;23688;33.130;-117.188;2023-02-12T11:38:56;99232.63;;;8.76;96.42
37848;BME280;23688;33.130;-117.188;2023-02-12T11:41:38;99221.13;;;8.69;96.65
37848;BME280;23688;33.130;-117.188;2023-02-12T11:44:19;99223.91;;;8.74;96.33
37848;BME280;23688;33.130;-117.188;2023-02-12T11:47:01;99208.25;;;8.71;95.03
37848;BME280;23688;33.130;-117.188;2023-02-12T11:49:39;99210.09;;;8.73;94.07
37848;BME280;23688;33.130;-117.188;2023-02-12T11:52:23;99216.94;;;8.73;94.01
37848;BME280;23688;33.130;-117.188;2023-02-12T11:54:54;99191.91;;;8.52;93.59
37848;BME280;23688;33.130;-117.188;2023-02-12T11:57:47;99211.97;;;8.58;93.85
37848;BME280;23688;33.130;-117.188;2023-02-12T12:03:15;99220.63;;;8.39;93.65
37848;BME280;23688;33.130;-117.188;2023-02-12T12:05:48;99223.56;;;8.29;93.82
37848;BME280;23688;33.130;-117.188;2023-02-12T12:08:32;99219.75;;;8.21;94.13
37848;BME280;23688;33.130;-117.188;2023-02-12T12:20:10;99230.34;;;8.07;96.01
37848;BME280;23688;33.130;-117.188;2023-02-12T12:28:24;99241.09;;;8.17;95.98
37848;BME280;23688;33.130;-117.188;2023-02-12T12:55:19;99215.19;;;8.15;95.45
37848;BME280;23688;33.130;-117.188;2023-02-12T12:58:00;99186.41;;;8.07;95.31
37848;BME280;23688;33.130;-117.188;2023-02-12T13:03:31;99200.25;;;8.27;94.02
37848;BME280;23688;33.130;-117.188;2023-02-12T13:17:12;99180.84;;;8.18;92.92
37848;BME280;23688;33.130;-117.188;2023-02-12T13:25:25;99183.28;;;8.14;92.90
37848;BME280;23688;33.130;-117.188;2023-02-12T13:27:57;99182.16;;;8.09;92.13
37848;BME280;23688;33.130;-117.188;2023-02-12T13:36:00;99192.13;;;7.64;92.06
37848;BME280;23688;33.130;-117.188;2023-02-12T13:38:50;99200.63;;;7.62;92.64
37848;BME280;23688;33.130;-117.188;2023-02-12T13:41:18;99203.63;;;7.53;92.97
37848;BME280;23688;33.130;-117.188;2023-02-12T13:44:18;99196.56;;;7.49;94.19
37848;BME280;23688;33.130;-117.188;2023-02-12T13:47:08;99181.22;;;7.34;94.93
37848;BME280;23688;33.130;-117.188;2023-02-12T13:52:32;99195.56;;;7.29;95.69
37848;BME280;23688;33.130;-117.188;2023-02-12T13:57:37;99183.25;;;7.23;94.97
37848;BME280;23688;33.130;-117.188;2023-02-12T14:00:05;99196.63;;;7.33;95.41
37848;BME280;23688;33.130;-117.188;2023-02-12T14:02:51;99198.31;;;7.32;95.01
37848;BME280;23688;33.130;-117.188;2023-02-12T14:05:35;99200.97;;;7.34;94.95
37848;BME280;23688;33.130;-117.188;2023-02-12T14:08:04;99192.19;;;7.30;95.01
37848;BME280;23688;33.130;-117.188;2023-02-12T14:10:36;99182.59;;;7.27;95.63
37848;BME280;23688;33.130;-117.188;2023-02-12T14:15:38;99189.69;;;7.32;95.37
37848;BME280;23688;33.130;-117.188;2023-02-12T14:18:31;99199.34;;;7.36;95.64
37848;BME280;23688;33.130;-117.188;2023-02-12T14:23:45;99198.97;;;7.28;95.83
37848;BME280;23688;33.130;-117.188;2023-02-12T14:28:59;99206.56;;;7.25;94.69
37848;BME280;23688;33.130;-117.188;2023-02-12T14:31:36;99196.00;;;7.20;93.38
37848;BME280;23688;33.130;-117.188;2023-02-12T14:36:36;99207.38;;;7.24;93.41
37848;BME280;23688;33.130;-117.188;2023-02-12T14:44:45;99200.75;;;6.95;93.37
37848;BME280;23688;33.130;-117.188;2023-02-12T14:47:47;99222.84;;;7.06;93.21
37848;BME280;23688;33.130;-117.188;2023-02-12T14:50:44;99210.75;;;7.05;92.85
37848;BME280;23688;33.130;-117.188;2023-02-12T14:53:34;99221.97;;;7.05;93.80
37848;BME280;23688;33.130;-117.188;2023-02-12T14:56:02;99213.97;;;7.01;94.27
37848;BME280;23688;33.130;-117.188;2023-02-12T14:58:31;99201.41;;;6.91;94.44
37848;BME280;23688;33.130;-117.188;2023-02-12T15:00:58;99212.63;;;6.91;94.82
37848;BME280;23688;33.130;-117.188;2023-02-12T15:03:55;99225.63;;;6.93;95.05
37848;BME280;23688;33.130;-117.188;2023-02-12T15:06:33;99230.59;;;6.90;95.62
37848;BME280;23688;33.130;-117.188;2023-02-12T15:09:07;99219.25;;;6.86;96.42
37848;BME280;23688;33.130;-117.188;2023-02-12T15:12:00;99224.78;;;6.94;96.08
37848;BME280;23688;33.130;-117.188;2023-02-12T15:14:31;99220.44;;;6.93;95.82
37848;BME280;23688;33.130;-117.188;2023-02-12T15:17:08;99212.47;;;6.88;96.20
37848;BME280;23688;33.130;-117.188;2023-02-12T15:20:02;99230.97;;;6.97;97.13
37848;BME280;23688;33.130;-117.188;2023-02-12T15:22:34;99219.78;;;6.97;97.36
37848;BME280;23688;33.130;-117.188;2023-02-12T15:25:14;99226.28;;;7.06;97.83
37848;BME280;23688;33.130;-117.188;2023-02-12T15:27:46;99231.53;;;7.08;98.17
37848;BME280;23688;33.130;-117.188;2023-02-12T15:30:19;99233.69;;;7.17;98.08
37848;BME280;23688;33.130;-117.188;2023-02-12T15:32:47;99212.97;;;7.15;98.47
37848;BME280;23688;33.130;-117.188;2023-02-12T15:35:35;99227.84;;;7.37;97.64
37848;BME280;23688;33.130;-117.188;2023-02-12T15:38:02;99237.94;;;7.50;98.08
37848;BME280;23688;33.130;-117.188;2023-02-12T15:40:32;99237.97;;;7.68;96.93
37848;BME280;23688;33.130;-117.188;2023-02-12T15:43:05;99220.13;;;7.73;97.09
37848;BME280;23688;33.130;-117.188;2023-02-12T15:45:34;99234.13;;;7.96;95.81
37848;BME280;23688;33.130;-117.188;2023-02-12T15:48:03;99237.50;;;8.13;96.15
37848;BME280;23688;33.130;-117.188;2023-02-12T15:50:33;99226.44;;;8.35;95.24
37848;BME280;23688;33.130;-117.188;2023-02-12T15:52:59;99229.22;;;8.57;94.20
37848;BME280;23688;33.130;-117.188;2023-02-12T15:55:28;99229.34;;;8.80;93.29
37848;BME280;23688;33.130;-117.188;2023-02-12T15:57:59;99228.66;;;9.04;90.48